createdAt,value
2023-03-24T00:00:01.993Z,1.23
2023-03-24T00:02:28.614Z,1.55
2023-03-24T00:04:58.610Z,1.52
2023-03-24T00:07:25.811Z,1.67
2023-03-24T00:09:54.050Z,1.80
2023-03-24T00:12:20.569Z,1.60
2023-03-24T00:14:47.076Z,1.40
2023-03-24T00:17:20.073Z,1.58
2023-03-24T00:19:46.590Z,1.43
2023-03-24T00:22:16.117Z,2.15
2023-03-24T00:24:46.352Z,1.80
2023-03-24T00:27:13.819Z,1.42
2023-03-24T00:29:41.456Z,1.58
2023-03-24T00:32:08.394Z,1.43
2023-03-24T00:34:38.415Z,1.30
2023-03-24T00:37:06.400Z,1.63
2023-03-24T00:39:33.433Z,1.27
2023-03-24T00:42:01.770Z,2.00
2023-03-24T00:44:28.495Z,1.63
2023-03-24T00:46:57.780Z,1.85
2023-03-24T00:49:42.097Z,1.70
2023-03-24T00:52:20.586Z,1.50
2023-03-24T00:54:48.750Z,1.90
2023-03-24T00:57:22.310Z,1.77
2023-03-24T00:59:54.584Z,1.55
2023-03-24T01:02:24.738Z,1.70
2023-03-24T01:04:56.551Z,1.60
2023-03-24T01:07:24.981Z,1.25
2023-03-24T01:09:57.438Z,1.70
2023-03-24T01:12:32.403Z,1.63
2023-03-24T01:15:00.378Z,1.55
2023-03-24T01:17:27.162Z,1.40
2023-03-24T01:19:54.219Z,1.80
2023-03-24T01:22:21.442Z,2.00
2023-03-24T01:24:49.220Z,1.75
2023-03-24T01:27:16.100Z,1.70
2023-03-24T01:29:42.861Z,1.90
2023-03-24T01:32:09.299Z,1.88
2023-03-24T01:34:35.899Z,1.33
2023-03-24T01:37:02.469Z,1.60
2023-03-24T01:39:29.794Z,1.75
2023-03-24T01:41:57.100Z,1.50
2023-03-24T01:44:35.674Z,1.83
2023-03-24T01:47:03.835Z,1.70
2023-03-24T01:49:38.698Z,1.90
2023-03-24T01:52:11.147Z,1.80
2023-03-24T01:54:42.809Z,1.90
2023-03-24T01:57:18.820Z,1.60
2023-03-24T01:59:48.410Z,1.70
2023-03-24T02:02:16.107Z,2.03
2023-03-24T02:04:45.892Z,1.80
2023-03-24T02:07:41.102Z,1.95
2023-03-24T02:10:13.237Z,2.28
2023-03-24T02:12:41.540Z,2.23
2023-03-24T02:15:09.037Z,1.67
2023-03-24T02:17:51.783Z,1.70
2023-03-24T02:20:32.756Z,2.20
2023-03-24T02:23:24.705Z,2.25
2023-03-24T02:26:32.654Z,2.50
2023-03-24T02:29:36.055Z,2.45
2023-03-24T02:32:24.126Z,2.50
2023-03-24T02:35:05.712Z,2.30
2023-03-24T02:37:35.173Z,1.95
2023-03-24T02:40:11.473Z,1.10
2023-03-24T02:42:49.468Z,1.38
2023-03-24T02:45:52.410Z,1.00
2023-03-24T02:48:43.173Z,1.00
2023-03-24T02:51:34.348Z,0.85
2023-03-24T02:54:36.251Z,0.90
2023-03-24T02:57:11.836Z,0.80
2023-03-24T02:59:47.250Z,0.90
2023-03-24T03:02:23.380Z,1.13
2023-03-24T03:04:55.156Z,0.43
2023-03-24T03:07:25.207Z,0.40
2023-03-24T03:09:57.851Z,0.40
2023-03-24T03:12:27.618Z,0.40
2023-03-24T03:15:02.898Z,0.52
2023-03-24T03:17:38.182Z,0.60
2023-03-24T03:20:18.895Z,0.40
2023-03-24T03:22:53.572Z,0.40
2023-03-24T03:25:28.992Z,0.50
2023-03-24T03:27:59.897Z,0.45
2023-03-24T03:30:31.609Z,0.40
2023-03-24T03:33:06.024Z,0.77
2023-03-24T03:35:39.716Z,0.50
2023-03-24T03:38:20.351Z,0.52
2023-03-24T03:40:56.109Z,0.95
2023-03-24T03:43:23.870Z,0.63
2023-03-24T03:45:50.499Z,0.93
2023-03-24T03:48:18.073Z,0.40
2023-03-24T03:50:44.931Z,0.70
2023-03-24T03:53:15.418Z,0.57
2023-03-24T03:55:41.910Z,0.40
2023-03-24T03:58:08.647Z,0.60
2023-03-24T04:00:36.817Z,0.52
2023-03-24T04:03:22.263Z,0.57
2023-03-24T04:06:25.278Z,0.55
2023-03-24T04:08:57.112Z,1.30
2023-03-24T04:11:35.391Z,1.00
2023-03-24T04:14:51.127Z,0.70
2023-03-24T04:17:37.676Z,0.95
2023-03-24T04:20:32.595Z,0.90
2023-03-24T04:23:09.310Z,1.08
2023-03-24T04:26:14.728Z,0.70
2023-03-24T04:29:10.697Z,0.82
2023-03-24T04:31:59.097Z,1.30
2023-03-24T04:34:32.327Z,0.90
2023-03-24T04:37:20.370Z,1.00
2023-03-24T04:39:49.779Z,1.67
2023-03-24T04:42:23.784Z,1.02
2023-03-24T04:44:53.112Z,1.73
2023-03-24T04:47:23.036Z,1.52
2023-03-24T04:49:49.578Z,1.00
2023-03-24T04:52:17.865Z,1.10
2023-03-24T04:54:44.537Z,1.20
2023-03-24T04:57:10.980Z,1.20
2023-03-24T04:59:37.434Z,1.23
2023-03-24T05:02:03.832Z,1.50
2023-03-24T05:04:30.836Z,0.90
2023-03-24T05:06:57.256Z,1.15
2023-03-24T05:09:25.294Z,0.90
2023-03-24T05:11:52.147Z,1.15
2023-03-24T05:14:19.061Z,1.20
2023-03-24T05:16:45.616Z,1.00
2023-03-24T05:19:12.208Z,0.73
2023-03-24T05:21:38.678Z,1.65
2023-03-24T05:24:05.206Z,1.05
2023-03-24T05:26:33.300Z,1.20
2023-03-24T05:29:00.310Z,1.50
2023-03-24T05:31:26.886Z,1.23
2023-03-24T05:33:53.338Z,0.95
2023-03-24T05:36:19.811Z,0.88
2023-03-24T05:38:46.225Z,1.05
2023-03-24T05:41:12.631Z,1.60
2023-03-24T05:43:39.103Z,1.20
2023-03-24T05:46:05.717Z,1.85
2023-03-24T05:48:32.159Z,1.05
2023-03-24T05:50:58.580Z,1.15
2023-03-24T05:53:25.294Z,1.57
2023-03-24T05:55:53.526Z,1.00
2023-03-24T05:58:21.268Z,1.60
2023-03-24T06:00:47.865Z,1.33
2023-03-24T06:03:17.284Z,1.83
2023-03-24T06:05:45.823Z,2.40
2023-03-24T06:08:12.612Z,1.35
2023-03-24T06:10:39.085Z,1.63
2023-03-24T06:13:05.558Z,1.60
2023-03-24T06:15:31.986Z,1.27
2023-03-24T06:17:58.394Z,1.23
2023-03-24T06:20:24.717Z,1.52
2023-03-24T06:22:51.106Z,2.35
2023-03-24T06:25:20.667Z,1.52
2023-03-24T06:27:47.173Z,2.08
2023-03-24T06:30:15.420Z,1.80
2023-03-24T06:32:43.574Z,1.40
2023-03-24T06:35:10.625Z,1.80
2023-03-24T06:37:37.063Z,1.20
2023-03-24T06:40:04.577Z,1.27
2023-03-24T06:42:30.935Z,1.43
2023-03-24T06:44:57.376Z,1.25
2023-03-24T06:47:23.765Z,1.50
2023-03-24T06:49:50.279Z,1.40
2023-03-24T06:52:16.644Z,1.40
2023-03-24T06:54:42.960Z,1.93
2023-03-24T06:57:09.349Z,1.30
2023-03-24T06:59:36.075Z,1.15
2023-03-24T07:02:02.508Z,1.90
2023-03-24T07:04:29.017Z,1.55
2023-03-24T07:07:11.997Z,2.20
2023-03-24T07:09:42.276Z,1.35
2023-03-24T07:12:09.102Z,1.17
2023-03-24T07:14:35.530Z,1.30
2023-03-24T07:17:02.400Z,1.48
2023-03-24T07:19:28.866Z,1.37
2023-03-24T07:21:55.324Z,1.50
2023-03-24T07:24:21.676Z,1.65
2023-03-24T07:26:48.132Z,1.60
2023-03-24T07:29:14.508Z,1.33
2023-03-24T07:31:41.558Z,1.60
2023-03-24T07:34:09.154Z,1.52
2023-03-24T07:36:35.927Z,1.60
2023-03-24T07:39:04.672Z,1.38
2023-03-24T07:41:31.317Z,1.30
2023-03-24T07:43:57.656Z,1.80
2023-03-24T07:46:24.075Z,1.70
2023-03-24T07:48:50.789Z,1.85
2023-03-24T07:51:19.831Z,1.70
2023-03-24T07:53:47.710Z,1.50
2023-03-24T07:56:14.882Z,1.67
2023-03-24T07:58:41.348Z,1.60
2023-03-24T08:01:10.492Z,1.50
2023-03-24T08:03:37.514Z,1.63
2023-03-24T08:06:04.894Z,1.60
2023-03-24T08:08:31.683Z,1.20
2023-03-24T08:10:58.307Z,1.52
2023-03-24T08:13:25.725Z,1.60
2023-03-24T08:15:53.200Z,1.35
2023-03-24T08:18:21.425Z,1.35
2023-03-24T08:20:50.189Z,1.90
2023-03-24T08:23:17.957Z,1.63
2023-03-24T08:25:44.333Z,1.40
2023-03-24T08:28:10.816Z,1.55
2023-03-24T08:30:37.217Z,1.20
2023-03-24T08:33:04.570Z,1.47
2023-03-24T08:35:33.922Z,1.30
2023-03-24T08:38:06.077Z,1.38
2023-03-24T08:40:34.763Z,2.10
2023-03-24T08:43:03.718Z,1.40
2023-03-24T08:45:32.289Z,1.87
2023-03-24T08:48:03.306Z,1.23
2023-03-24T08:50:34.440Z,1.30
2023-03-24T08:53:01.758Z,1.80
2023-03-24T08:55:28.206Z,1.40
2023-03-24T08:57:54.634Z,1.67
2023-03-24T09:00:22.591Z,1.60
2023-03-24T09:02:52.437Z,1.27
2023-03-24T09:05:22.789Z,1.70
2023-03-24T09:07:56.496Z,1.35
2023-03-24T09:10:22.928Z,1.40
2023-03-24T09:12:49.841Z,1.20
2023-03-24T09:15:16.362Z,1.38
2023-03-24T09:17:43.128Z,1.33
2023-03-24T09:20:12.986Z,1.23
2023-03-24T09:22:43.745Z,1.00
2023-03-24T09:25:16.797Z,1.40
2023-03-24T09:27:43.426Z,1.52
2023-03-24T09:30:11.586Z,1.80
2023-03-24T09:32:38.040Z,1.20
2023-03-24T09:35:06.000Z,1.60
2023-03-24T09:37:32.953Z,1.45
2023-03-24T09:40:01.340Z,1.30
2023-03-24T09:42:35.830Z,1.42
2023-03-24T09:45:13.174Z,1.73
2023-03-24T09:47:43.320Z,1.30
2023-03-24T09:50:22.838Z,1.90
2023-03-24T09:52:53.050Z,1.33
2023-03-24T09:55:28.352Z,1.90
2023-03-24T09:58:04.850Z,1.20
2023-03-24T10:00:33.025Z,0.90
2023-03-24T10:03:20.888Z,1.50
2023-03-24T10:06:06.148Z,0.80
2023-03-24T10:08:36.425Z,0.90
2023-03-24T10:11:15.500Z,1.25
2023-03-24T10:14:01.539Z,0.90
2023-03-24T10:16:32.151Z,1.10
2023-03-24T10:19:21.386Z,1.25
2023-03-24T10:22:04.140Z,1.08
2023-03-24T10:24:45.281Z,0.88
2023-03-24T10:27:33.933Z,1.20
2023-03-24T10:30:14.074Z,0.70
2023-03-24T10:32:41.981Z,1.17
2023-03-24T10:35:18.402Z,0.80
2023-03-24T10:37:45.470Z,1.40
2023-03-24T10:40:18.391Z,1.17
2023-03-24T10:42:48.529Z,1.10
2023-03-24T10:45:28.394Z,1.20
2023-03-24T10:47:58.684Z,1.15
2023-03-24T10:50:28.236Z,1.20
2023-03-24T10:52:55.457Z,2.10
2023-03-24T10:55:24.493Z,0.93
2023-03-24T10:57:55.292Z,1.23
2023-03-24T11:00:32.367Z,1.05
2023-03-24T11:03:02.240Z,1.92
2023-03-24T11:05:33.240Z,2.40
2023-03-24T11:08:14.961Z,1.40
2023-03-24T11:10:41.481Z,1.00
2023-03-24T11:13:19.015Z,1.38
2023-03-24T11:16:09.345Z,1.08
2023-03-24T11:18:35.813Z,1.10
2023-03-24T11:21:04.849Z,1.33
2023-03-24T11:23:33.156Z,1.38
2023-03-24T11:26:13.676Z,1.27
2023-03-24T11:28:43.721Z,1.00
2023-03-24T11:31:19.110Z,0.77
2023-03-24T11:33:56.634Z,1.13
2023-03-24T11:36:30.442Z,1.65
2023-03-24T11:39:02.456Z,1.92
2023-03-24T11:41:28.913Z,1.15
2023-03-24T11:44:24.443Z,1.40
2023-03-24T11:46:58.241Z,1.20
2023-03-24T11:49:32.302Z,0.90
2023-03-24T11:51:59.858Z,1.15
2023-03-24T11:54:36.451Z,1.10
2023-03-24T11:57:08.108Z,1.20
2023-03-24T11:59:46.542Z,1.33
2023-03-24T12:02:27.510Z,1.00
2023-03-24T12:05:02.799Z,1.00
2023-03-24T12:08:01.013Z,0.98
2023-03-24T12:11:00.711Z,0.70
2023-03-24T12:13:33.350Z,0.98
2023-03-24T12:16:21.224Z,1.05
2023-03-24T12:19:12.671Z,1.08
2023-03-24T12:21:51.639Z,0.82
2023-03-24T12:24:36.761Z,0.80
2023-03-24T12:27:03.267Z,0.80
2023-03-24T12:29:56.614Z,0.95
2023-03-24T12:32:41.970Z,0.80
2023-03-24T12:35:20.324Z,0.80
2023-03-24T12:38:01.399Z,0.87
2023-03-24T12:40:43.164Z,1.33
2023-03-24T12:43:31.434Z,0.57
2023-03-24T12:46:02.527Z,0.95
2023-03-24T12:48:51.377Z,0.98
2023-03-24T12:51:29.187Z,0.93
2023-03-24T12:54:23.314Z,0.70
2023-03-24T12:56:54.839Z,0.90
2023-03-24T12:59:44.310Z,0.63
2023-03-24T13:02:31.530Z,0.57
2023-03-24T13:05:05.311Z,0.83
2023-03-24T13:07:43.849Z,0.40
2023-03-24T13:10:41.006Z,0.50
2023-03-24T13:13:29.494Z,0.80
2023-03-24T13:15:58.335Z,0.50
2023-03-24T13:18:27.789Z,0.70
2023-03-24T13:21:00.009Z,0.63
2023-03-24T13:23:38.419Z,1.00
2023-03-24T13:26:10.951Z,0.65
2023-03-24T13:28:49.601Z,0.70
2023-03-24T13:31:18.179Z,0.60
2023-03-24T13:33:45.272Z,0.60
2023-03-24T13:36:23.573Z,0.60
2023-03-24T13:38:52.930Z,1.17
2023-03-24T13:41:24.106Z,1.45
2023-03-24T13:43:58.358Z,0.80
2023-03-24T13:46:25.235Z,1.05
2023-03-24T13:48:55.502Z,1.20
2023-03-24T13:51:38.416Z,0.93
2023-03-24T13:54:12.028Z,0.77
2023-03-24T13:56:48.758Z,1.00
2023-03-24T13:59:28.681Z,0.75
2023-03-24T14:02:18.822Z,0.90
2023-03-24T14:05:08.624Z,1.10
2023-03-24T14:07:41.237Z,1.10
2023-03-24T14:10:13.897Z,0.60
2023-03-24T14:12:58.557Z,1.10
2023-03-24T14:15:51.688Z,0.68
2023-03-24T14:18:24.766Z,0.68
2023-03-24T14:20:57.596Z,0.60
2023-03-24T14:23:47.127Z,0.53
2023-03-24T14:26:29.690Z,0.80
2023-03-24T14:28:58.018Z,0.60
2023-03-24T14:31:33.167Z,0.95
2023-03-24T14:34:10.830Z,0.47
2023-03-24T14:36:40.496Z,0.50
2023-03-24T14:39:18.816Z,0.60
2023-03-24T14:41:47.160Z,0.60
2023-03-24T14:44:13.666Z,0.65
2023-03-24T14:46:51.865Z,0.57
2023-03-24T14:49:30.291Z,0.47
2023-03-24T14:52:18.871Z,0.50
2023-03-24T14:55:06.784Z,0.50
2023-03-24T14:57:42.255Z,0.77
2023-03-24T15:00:57.949Z,0.70
2023-03-24T15:04:04.843Z,0.60
2023-03-24T15:06:31.854Z,0.80
2023-03-24T15:09:01.244Z,0.98
2023-03-24T15:11:34.053Z,0.70
2023-03-24T15:14:03.785Z,0.50
2023-03-24T15:16:32.952Z,0.60
2023-03-24T15:19:03.329Z,1.05
2023-03-24T15:21:40.932Z,0.50
2023-03-24T15:24:38.100Z,0.70
2023-03-24T15:27:17.366Z,0.77
2023-03-24T15:29:44.881Z,0.43
2023-03-24T15:32:19.196Z,0.70
2023-03-24T15:34:55.116Z,0.60
2023-03-24T15:37:33.026Z,0.90
2023-03-24T15:40:14.693Z,1.00
2023-03-24T15:42:44.840Z,0.80
2023-03-24T15:45:22.177Z,0.50
2023-03-24T15:47:51.830Z,0.70
2023-03-24T15:50:39.330Z,0.60
2023-03-24T15:53:14.699Z,0.85
2023-03-24T15:55:43.447Z,0.70
2023-03-24T15:58:28.408Z,0.57
2023-03-24T16:00:57.908Z,0.70
2023-03-24T16:03:27.647Z,0.73
2023-03-24T16:05:56.162Z,0.82
2023-03-24T16:08:39.087Z,0.70
2023-03-24T16:11:10.793Z,0.77
2023-03-24T16:13:42.514Z,0.55
2023-03-24T16:16:15.577Z,1.10
2023-03-24T16:18:46.997Z,0.55
2023-03-24T16:21:15.970Z,0.70
2023-03-24T16:23:43.522Z,1.13
2023-03-24T16:26:22.779Z,0.98
2023-03-24T16:28:50.501Z,0.75
2023-03-24T16:31:19.856Z,0.68
2023-03-24T16:33:46.779Z,1.00
2023-03-24T16:36:13.438Z,0.75
2023-03-24T16:38:39.777Z,1.55
2023-03-24T16:41:06.557Z,0.90
2023-03-24T16:43:34.263Z,0.63
2023-03-24T16:46:00.682Z,0.70
2023-03-24T16:48:27.119Z,0.85
2023-03-24T16:50:53.746Z,0.80
2023-03-24T16:53:21.290Z,0.90
2023-03-24T16:55:47.787Z,1.13
2023-03-24T16:58:16.452Z,0.53
2023-03-24T17:00:45.441Z,1.35
2023-03-24T17:03:13.659Z,0.50
2023-03-24T17:05:50.683Z,0.47
2023-03-24T17:08:19.051Z,0.63
2023-03-24T17:10:48.677Z,0.60
2023-03-24T17:13:19.560Z,0.90
2023-03-24T17:15:46.274Z,1.05
2023-03-24T17:18:12.829Z,0.60
2023-03-24T17:20:42.069Z,0.60
2023-03-24T17:23:11.303Z,0.40
2023-03-24T17:25:37.824Z,0.52
2023-03-24T17:28:12.021Z,0.65
2023-03-24T17:30:38.408Z,0.73
2023-03-24T17:33:04.860Z,0.60
2023-03-24T17:35:31.362Z,0.63
2023-03-24T17:37:57.885Z,0.60
2023-03-24T17:40:24.417Z,0.70
2023-03-24T17:42:50.982Z,0.80
2023-03-24T17:45:18.759Z,0.80
2023-03-24T17:47:46.253Z,0.70
2023-03-24T17:50:13.366Z,1.23
2023-03-24T17:52:43.770Z,0.80
2023-03-24T17:55:12.068Z,0.82
2023-03-24T17:57:38.790Z,0.90
2023-03-24T18:00:08.201Z,0.50
2023-03-24T18:02:34.669Z,0.50
2023-03-24T18:05:01.429Z,0.70
2023-03-24T18:07:27.762Z,0.80
2023-03-24T18:09:54.194Z,0.77
2023-03-24T18:12:21.093Z,1.27
2023-03-24T18:14:47.636Z,1.00
2023-03-24T18:17:14.260Z,0.90
2023-03-24T18:19:40.837Z,1.25
2023-03-24T18:22:07.578Z,0.98
2023-03-24T18:24:34.145Z,1.10
2023-03-24T18:27:01.225Z,1.00
2023-03-24T18:29:27.604Z,0.98
2023-03-24T18:31:54.434Z,0.80
2023-03-24T18:34:23.070Z,0.70
2023-03-24T18:36:50.018Z,0.80
2023-03-24T18:39:16.514Z,0.80
2023-03-24T18:41:42.896Z,0.85
2023-03-24T18:44:12.633Z,0.88
2023-03-24T18:46:39.092Z,0.70
2023-03-24T18:49:07.035Z,0.83
2023-03-24T18:51:33.451Z,0.75
2023-03-24T18:53:59.819Z,1.02
2023-03-24T18:56:26.290Z,0.80
2023-03-24T18:58:52.832Z,0.50
2023-03-24T19:01:22.732Z,1.57
2023-03-24T19:03:50.669Z,0.70
2023-03-24T19:06:17.289Z,1.08
2023-03-24T19:08:46.208Z,1.00
2023-03-24T19:11:14.744Z,0.55
2023-03-24T19:13:41.650Z,0.70
2023-03-24T19:16:10.479Z,0.75
2023-03-24T19:18:37.244Z,0.40
2023-03-24T19:21:04.181Z,0.82
2023-03-24T19:23:31.196Z,0.45
2023-03-24T19:25:57.603Z,0.60
2023-03-24T19:28:29.400Z,0.50
2023-03-24T19:30:57.215Z,0.73
2023-03-24T19:33:23.848Z,0.47
2023-03-24T19:35:51.467Z,0.63
2023-03-24T19:38:20.950Z,0.73
2023-03-24T19:40:47.446Z,0.47
2023-03-24T19:43:13.855Z,0.80
2023-03-24T19:45:42.979Z,0.50
2023-03-24T19:48:10.572Z,0.45
2023-03-24T19:50:37.327Z,0.73
2023-03-24T19:53:03.911Z,0.63
2023-03-24T19:55:31.466Z,0.80
2023-03-24T19:57:59.388Z,0.47
2023-03-24T20:00:25.827Z,0.63
2023-03-24T20:02:52.235Z,0.50
2023-03-24T20:05:18.724Z,0.50
2023-03-24T20:07:45.186Z,0.55
2023-03-24T20:10:11.716Z,0.45
2023-03-24T20:12:38.100Z,0.57
2023-03-24T20:15:04.853Z,0.70
2023-03-24T20:17:37.293Z,0.88
2023-03-24T20:20:07.144Z,0.90
2023-03-24T20:22:41.842Z,0.40
2023-03-24T20:25:09.982Z,0.55
2023-03-24T20:27:36.726Z,0.60
2023-03-24T20:30:04.950Z,0.40
2023-03-24T20:32:31.458Z,0.40
2023-03-24T20:34:58.077Z,0.88
2023-03-24T20:37:25.512Z,0.57
2023-03-24T20:39:52.113Z,0.50
2023-03-24T20:42:21.756Z,0.80
2023-03-24T20:44:48.080Z,0.50
2023-03-24T20:47:14.485Z,0.50
2023-03-24T20:49:41.301Z,0.40
2023-03-24T20:52:07.749Z,0.50
2023-03-24T20:54:34.184Z,0.60
2023-03-24T20:57:01.049Z,1.05
2023-03-24T20:59:28.652Z,0.40
2023-03-24T21:01:55.027Z,1.08
2023-03-24T21:04:21.423Z,0.40
2023-03-24T21:06:47.780Z,0.40
2023-03-24T21:09:14.185Z,0.50
2023-03-24T21:11:40.749Z,0.43
2023-03-24T21:14:07.168Z,0.40
2023-03-24T21:16:34.121Z,0.93
2023-03-24T21:19:03.509Z,0.45
2023-03-24T21:21:29.990Z,1.25
2023-03-24T21:23:57.433Z,0.60
2023-03-24T21:26:25.229Z,0.47
2023-03-24T21:28:52.837Z,0.77
2023-03-24T21:31:28.401Z,0.50
2023-03-24T21:33:56.371Z,0.57
2023-03-24T21:36:24.422Z,0.70
2023-03-24T21:38:51.612Z,0.45
2023-03-24T21:41:19.107Z,0.50
2023-03-24T21:43:46.856Z,0.50
2023-03-24T21:46:20.896Z,0.63
2023-03-24T21:48:51.797Z,0.60
2023-03-24T21:51:26.188Z,0.60
2023-03-24T21:53:59.157Z,1.00
2023-03-24T21:56:25.576Z,0.45
2023-03-24T21:58:55.128Z,1.08
2023-03-24T22:01:22.497Z,0.40
2023-03-24T22:03:50.699Z,0.55
2023-03-24T22:06:17.344Z,0.60
2023-03-24T22:08:44.450Z,0.73
2023-03-24T22:11:11.123Z,0.70
2023-03-24T22:13:38.861Z,0.65
2023-03-24T22:16:05.944Z,0.52
2023-03-24T22:18:33.613Z,0.63
2023-03-24T22:21:06.713Z,0.47
2023-03-24T22:23:36.587Z,0.70
2023-03-24T22:26:08.936Z,0.80
2023-03-24T22:28:35.951Z,0.63
2023-03-24T22:31:11.528Z,0.50
2023-03-24T22:33:38.632Z,0.70
2023-03-24T22:36:05.758Z,0.47
2023-03-24T22:38:34.249Z,0.68
2023-03-24T22:41:04.661Z,0.57
2023-03-24T22:43:31.899Z,0.70
2023-03-24T22:45:58.347Z,0.70
2023-03-24T22:48:24.996Z,0.40
2023-03-24T22:50:52.879Z,0.50
2023-03-24T22:53:19.397Z,0.70
2023-03-24T22:55:45.880Z,0.40
2023-03-24T22:58:13.793Z,0.50
2023-03-24T23:00:41.316Z,0.80
2023-03-24T23:03:08.419Z,0.80
2023-03-24T23:05:39.504Z,1.00
2023-03-24T23:08:06.312Z,0.73
2023-03-24T23:10:32.977Z,0.90
2023-03-24T23:12:59.361Z,0.63
2023-03-24T23:15:26.270Z,0.75
2023-03-24T23:17:52.789Z,0.70
2023-03-24T23:20:20.071Z,0.90
2023-03-24T23:22:47.735Z,0.70
2023-03-24T23:25:15.136Z,0.65
2023-03-24T23:27:41.941Z,0.60
2023-03-24T23:30:11.669Z,0.50
2023-03-24T23:32:39.650Z,1.43
2023-03-24T23:35:07.986Z,0.93
2023-03-24T23:37:36.388Z,0.90
2023-03-24T23:40:07.321Z,0.75
2023-03-24T23:42:33.705Z,1.17
2023-03-24T23:45:00.125Z,1.00
2023-03-24T23:47:26.630Z,0.50
2023-03-24T23:49:53.125Z,0.63
2023-03-24T23:52:19.614Z,0.70
2023-03-24T23:54:46.576Z,0.60
2023-03-24T23:57:13.343Z,0.90
